This is the latest recevied weather packets stored in our database for station/object SP2JGY-2. If no packets are shown the sender has not sent any weather packets the latest 10 day(s).
| Time | Temp. | Humidity | Pressure | Rain* | Wind** | Luminosity | Snow |
|---|---|---|---|---|---|---|---|
| 1777615772 | 12.22° C | 55% | 1028 hPa | - | - | - | - |
| 1777614873 | 11.11° C | 59% | 1028 hPa | - | - | - | - |
| 1777613971 | 9.44° C | 63% | 1028.1 hPa | - | - | - | - |
| 1777613071 | 8.33° C | 67% | 1028.2 hPa | - | - | - | - |
| 1777612171 | 7.78° C | 69% | 1028 hPa | - | - | - | - |
| 1777611271 | 6.67° C | 72% | 1028.1 hPa | - | - | - | - |
| 1777610370 | 5.56° C | 74% | 1028.1 hPa | - | - | - | - |
| 1777609470 | 5° C | 74% | 1028.1 hPa | - | - | - | - |
| 1777608570 | 4.44° C | 75% | 1028 hPa | - | - | - | - |
| 1777607672 | 3.89° C | 76% | 1028 hPa | - | - | - | - |
| 1777606770 | 3.89° C | 73% | 1028 hPa | - | - | - | - |
| 1777605870 | 3.89° C | 75% | 1027.9 hPa | - | - | - | - |
| 1777604969 | 3.89° C | 76% | 1027.9 hPa | - | - | - | - |
| 1777604071 | 3.33° C | 73% | 1028 hPa | - | - | - | - |
| 1777603169 | 3.89° C | 73% | 1027.9 hPa | - | - | - | - |
| 1777602269 | 4.44° C | 72% | 1027.8 hPa | - | - | - | - |
| 1777601369 | 4.44° C | 70% | 1027.8 hPa | - | - | - | - |
| 1777600471 | 5° C | 71% | 1027.9 hPa | - | - | - | - |
| 1777586966 | 7.78° C | 54% | 1027.5 hPa | - | - | - | - |
| 1777585166 | 8.89° C | 51% | 1027.5 hPa | - | - | - | - |
| 1777584266 | 8.89° C | 51% | 1027.4 hPa | - | - | - | - |
| 1777583365 | 8.89° C | 50% | 1027.4 hPa | - | - | - | - |
| 1777582465 | 9.44° C | 48% | 1027.4 hPa | - | - | - | - |
| 1777581565 | 9.44° C | 47% | 1027.3 hPa | - | - | - | - |
| 1777580665 | 10° C | 44% | 1027.4 hPa | - | - | - | - |
* Rain since midnight (hover to see other rain measurements)
** Current wind speed in m/s (hover to see current wind gust speed)